Time;durP1;ratioP1;P1;durP2;ratioP2;P2;SDS_P1;SDS_P2;PMS_P1;PMS_P2;Temp;Humidity;BMP_temperature;BMP_pressure;BME280_temperature;BME280_humidity;BME280_pressure;Samples;Min_cycle;Max_cycle;Signal;HPM_P1;HPM_P2
2020/12/20 00:00:24;;;;;;;11.50;9.00;;;8.70;88.40;;;8.33;80.80;98425.88;5068786;28;20690;-68
2020/12/20 00:02:54;;;;;;;10.60;8.50;;;8.70;88.30;;;8.32;81.28;98427.66;5071603;28;20663;-68
2020/12/20 00:05:23;;;;;;;11.33;8.30;;;8.70;88.30;;;8.31;81.70;98425.13;5063159;28;20651;-68
2020/12/20 00:07:52;;;;;;;10.30;8.83;;;8.70;88.40;;;8.30;81.39;98434.69;5065595;28;21197;-68
2020/12/20 00:10:23;;;;;;;9.50;8.47;;;8.70;88.50;;;8.30;82.00;98428.66;5071533;28;20635;-69
2020/12/20 00:12:51;;;;;;;9.80;8.17;;;8.70;88.50;;;8.26;82.48;98433.19;5072819;28;20729;-69
2020/12/20 00:15:19;;;;;;;11.43;9.33;;;8.70;88.90;;;8.25;81.51;98423.69;5061790;28;20732;-69
2020/12/20 00:17:47;;;;;;;10.67;8.83;;;8.60;88.70;;;8.25;82.83;98425.47;5065169;28;20647;-69
2020/12/20 00:20:16;;;;;;;10.17;8.00;;;8.60;88.90;;;8.25;81.78;98422.88;5059065;28;20690;-69
2020/12/20 00:22:43;;;;;;;10.07;8.10;;;8.60;89.00;;;8.24;82.31;98422.03;5064137;28;20637;-68
2020/12/20 00:25:11;;;;;;;10.50;8.80;;;8.60;89.00;;;8.23;81.22;98420.34;5058640;28;20627;-68
2020/12/20 00:27:41;;;;;;;10.47;8.80;;;8.60;89.00;;;8.23;82.38;98424.72;5070195;28;20679;-69
2020/12/20 00:30:09;;;;;;;10.33;8.67;;;8.60;88.90;;;8.22;81.24;98410.03;5064974;28;20619;-68
2020/12/20 00:32:37;;;;;;;9.20;8.10;;;8.60;88.60;;;8.23;82.61;98412.56;5067509;28;20632;-68
2020/12/20 00:35:06;;;;;;;9.70;7.53;;;8.60;88.90;;;8.22;80.86;98410.88;5061245;28;20736;-69
2020/12/20 00:37:34;;;;;;;11.13;8.10;;;8.60;88.60;;;8.22;82.22;98413.47;5054628;28;20616;-68
2020/12/20 00:40:03;;;;;;;10.97;8.60;;;8.60;88.60;;;8.24;81.31;98413.38;5067389;28;20647;-68
2020/12/20 00:42:31;;;;;;;9.57;8.53;;;8.60;88.40;;;8.22;81.32;98413.47;5070592;28;20673;-69
2020/12/20 00:44:59;;;;;;;9.30;8.30;;;8.60;88.90;;;8.22;80.93;98416.06;5072755;28;20706;-68
2020/12/20 00:47:27;;;;;;;10.70;8.73;;;8.60;88.80;;;8.23;82.24;98415.16;5070569;28;20631;-69
2020/12/20 00:49:54;;;;;;;9.93;8.10;;;8.60;88.70;;;8.24;82.54;98410.78;5070415;28;20687;-68
2020/12/20 00:52:22;;;;;;;8.67;7.77;;;8.60;88.80;;;8.23;82.22;98406.53;5071203;28;21178;-68
2020/12/20 00:54:54;;;;;;;9.90;8.30;;;8.60;88.60;;;8.23;81.30;98409.13;5090827;28;20607;-69
2020/12/20 00:57:21;;;;;;;9.03;7.73;;;8.60;88.90;;;8.22;82.73;98416.06;5071320;28;20636;-68
2020/12/20 00:59:49;;;;;;;8.57;7.67;;;8.60;89.10;;;8.23;82.83;98415.16;5059744;28;20653;-69
2020/12/20 01:02:17;;;;;;;8.57;7.63;;;8.60;89.30;;;8.21;81.40;98417.00;5068413;28;20632;-69
2020/12/20 01:04:46;;;;;;;10.10;8.83;;;8.60;89.20;;;8.22;81.28;98410.88;5068879;28;20667;-69
2020/12/20 01:07:14;;;;;;;9.43;8.17;;;8.60;89.00;;;8.21;82.87;98409.22;5057859;28;21226;-68
2020/12/20 01:09:48;;;;;;;10.07;8.53;;;8.60;89.10;;;8.21;82.05;98411.81;5073535;28;20653;-68
2020/12/20 01:12:18;;;;;;;9.63;8.60;;;8.60;89.00;;;8.19;81.87;98408.44;5055129;28;20682;-70
2020/12/20 01:15:04;;;;;;;11.70;7.97;;;8.60;89.20;;;8.20;82.21;98410.13;5058780;28;20677;-68
2020/12/20 01:17:37;;;;;;;8.43;7.53;;;8.60;89.30;;;8.18;81.74;98414.56;5068266;28;20620;-69
2020/12/20 01:20:07;;;;;;;9.53;8.17;;;8.60;89.40;;;8.18;81.65;98414.56;5055133;28;20655;-69
2020/12/20 01:22:35;;;;;;;10.20;8.50;;;8.60;89.40;;;8.19;81.46;98410.19;5053377;28;20646;-68
2020/12/20 01:25:05;;;;;;;10.73;8.60;;;8.60;89.50;;;8.19;81.69;98405.00;5055116;28;21227;-70
2020/12/20 01:27:32;;;;;;;11.33;8.23;;;8.60;89.40;;;8.18;81.20;98409.38;5065507;28;20626;-68
2020/12/20 01:30:00;;;;;;;9.43;7.90;;;8.50;89.10;;;8.18;82.65;98416.34;5070417;28;20639;-68
2020/12/20 01:32:28;;;;;;;10.63;8.57;;;8.50;89.50;;;8.15;81.34;98430.31;5057968;28;20644;-68
2020/12/20 01:35:06;;;;;;;10.67;8.57;;;8.50;89.50;;;8.15;81.71;98414.72;5066554;28;20682;-68
2020/12/20 01:37:35;;;;;;;8.67;7.70;;;8.50;89.30;;;8.13;81.79;98414.00;5066844;28;20666;-68
2020/12/20 01:40:05;;;;;;;11.07;9.13;;;8.50;89.30;;;8.12;82.65;98404.50;5055266;28;20674;-68
2020/12/20 01:42:34;;;;;;;9.53;8.10;;;8.50;89.60;;;8.14;82.80;98407.84;5056785;28;20632;-69
2020/12/20 01:45:03;;;;;;;10.10;8.10;;;8.50;89.60;;;8.13;82.01;98405.34;5063010;28;20626;-69
2020/12/20 01:47:37;;;;;;;9.77;8.30;;;8.50;89.90;;;8.15;81.76;98409.53;5056018;28;20704;-68
2020/12/20 01:50:12;;;;;;;10.30;8.43;;;8.50;89.90;;;8.14;81.65;98414.81;5064384;28;20657;-68
2020/12/20 01:52:41;;;;;;;9.63;7.40;;;8.50;90.00;;;8.12;82.50;98403.69;5070114;28;20657;-68
2020/12/20 01:55:14;;;;;;;9.40;7.93;;;8.50;89.60;;;8.12;81.98;98403.69;5067979;28;20631;-69
2020/12/20 01:57:55;;;;;;;9.87;7.90;;;8.50;90.40;;;8.11;83.02;98408.03;5054651;28;20637;-68
2020/12/20 02:00:34;;;;;;;11.27;8.17;;;8.50;90.20;;;8.12;83.81;98404.50;5055672;28;20660;-68
2020/12/20 02:03:32;;;;;;;9.33;7.93;;;8.50;90.20;;;8.13;82.80;98410.53;5065956;28;20655;-68
2020/12/20 02:06:02;;;;;;;9.07;7.90;;;8.50;90.40;;;8.13;83.52;98408.78;5066608;28;20641;-68
2020/12/20 02:08:29;;;;;;;9.20;7.87;;;8.50;90.20;;;8.12;83.18;98414.91;5060475;28;20701;-69
2020/12/20 02:11:10;;;;;;;9.57;8.00;;;8.50;90.20;;;8.12;83.74;98411.47;5066623;28;20972;-69
2020/12/20 02:13:42;;;;;;;9.53;7.90;;;8.50;90.30;;;8.13;83.74;98420.91;5067478;28;20684;-68
2020/12/20 02:16:12;;;;;;;8.80;7.30;;;8.50;90.30;;;8.12;83.89;98412.31;5044206;28;21188;-69
2020/12/20 02:18:41;;;;;;;9.10;7.80;;;8.50;90.30;;;8.13;82.47;98407.94;5058273;28;20632;-68
2020/12/20 02:21:15;;;;;;;7.83;7.03;;;8.50;90.40;;;8.12;83.69;98409.69;5070230;28;21042;-68
2020/12/20 02:23:47;;;;;;;8.33;7.43;;;8.50;90.60;;;8.12;83.34;98404.50;5066795;28;20638;-68
2020/12/20 02:26:20;;;;;;;9.83;7.73;;;8.50;90.40;;;8.14;82.77;98404.44;5060122;28;20647;-68
2020/12/20 02:28:50;;;;;;;8.70;7.60;;;8.50;90.50;;;8.14;82.28;98405.25;5064304;28;20942;-68
2020/12/20 02:31:22;;;;;;;8.80;7.53;;;8.50;90.50;;;8.15;82.30;98395.72;5066998;28;20638;-68
2020/12/20 02:33:50;;;;;;;9.13;7.70;;;8.50;90.50;;;8.16;83.35;98407.78;5058466;28;20640;-69
2020/12/20 02:36:18;;;;;;;11.50;8.03;;;8.50;90.40;;;8.15;82.61;98399.16;5058271;28;20674;-68
2020/12/20 02:38:47;;;;;;;8.33;7.43;;;8.50;90.30;;;8.16;83.47;98411.22;5065168;28;20709;-70
2020/12/20 02:41:22;;;;;;;8.53;7.27;;;8.60;90.30;;;8.15;82.29;98409.53;5058929;28;20662;-69
2020/12/20 02:43:51;;;;;;;8.00;7.20;;;8.60;90.40;;;8.16;83.62;98412.97;5060863;28;20630;-69
2020/12/20 02:46:22;;;;;;;10.93;8.50;;;8.50;90.50;;;8.16;83.55;98406.03;5069142;28;20639;-70
2020/12/20 02:48:54;;;;;;;8.20;7.40;;;8.50;90.40;;;8.17;82.97;98418.09;5062321;28;20737;-70
2020/12/20 02:51:23;;;;;;;10.50;8.00;;;8.60;90.40;;;8.18;82.53;98411.97;5053779;28;20631;-70
2020/12/20 02:53:51;;;;;;;8.13;7.33;;;8.50;90.50;;;8.18;82.49;98409.38;5054247;28;20731;-67
2020/12/20 02:56:28;;;;;;;9.20;7.40;;;8.60;90.60;;;8.20;82.46;98406.69;5068040;28;20731;-70
2020/12/20 02:58:59;;;;;;;12.43;8.10;;;8.60;90.50;;;8.17;83.17;98412.88;5065133;28;20659;-70
2020/12/20 03:01:27;;;;;;;8.40;7.50;;;8.50;90.40;;;8.16;83.59;98403.44;5067186;28;20750;-70
2020/12/20 03:03:56;;;;;;;9.87;7.70;;;8.50;90.60;;;8.18;83.47;98398.16;5060509;28;20676;-70
2020/12/20 03:06:24;;;;;;;10.37;7.80;;;8.50;90.70;;;8.17;83.65;98397.28;5067693;28;21043;-70
2020/12/20 03:08:57;;;;;;;9.90;8.10;;;8.50;90.60;;;8.18;82.75;98411.16;5052428;28;20662;-70
2020/12/20 03:11:25;;;;;;;10.57;7.77;;;8.50;90.70;;;8.15;84.12;98396.56;5054899;28;20693;-70
2020/12/20 03:13:52;;;;;;;10.60;8.10;;;8.50;90.60;;;8.15;82.72;98404.34;5050826;28;20644;-69
2020/12/20 03:16:20;;;;;;;8.80;7.23;;;8.50;90.60;;;8.13;82.64;98408.78;5064302;28;20620;-69
2020/12/20 03:18:48;;;;;;;9.30;7.20;;;8.50;90.60;;;8.11;83.30;98402.81;5067358;28;20733;-69
2020/12/20 03:21:16;;;;;;;10.70;7.90;;;8.50;90.60;;;8.11;82.79;98402.81;5067194;28;20688;-70
2020/12/20 03:24:08;;;;;;;9.23;7.53;;;8.50;90.60;;;8.09;82.55;98399.44;5060296;28;21175;-69
2020/12/20 03:27:04;;;;;;;8.90;7.60;;;8.50;90.60;;;8.08;84.19;98399.53;5098730;28;20707;-70
2020/12/20 03:29:58;;;;;;;9.03;7.40;;;8.50;90.60;;;8.07;82.71;98393.50;5062159;28;20640;-70
2020/12/20 03:32:46;;;;;;;8.37;7.07;;;8.50;90.70;;;8.07;83.03;98400.44;5057733;28;21194;-70
2020/12/20 03:35:34;;;;;;;8.83;7.67;;;8.40;90.70;;;8.08;84.67;98391.72;5053787;28;20761;-69
2020/12/20 03:38:09;;;;;;;8.60;7.30;;;8.50;90.90;;;8.06;83.46;98386.63;5050890;28;20620;-70
2020/12/20 03:40:42;;;;;;;8.70;7.23;;;8.50;90.90;;;8.07;83.27;98393.50;5064015;28;21237;-70
2020/12/20 03:43:11;;;;;;;8.93;7.17;;;8.50;91.20;;;8.08;83.83;98387.38;5054306;28;20738;-71
2020/12/20 03:45:47;;;;;;;8.60;7.67;;;8.50;90.90;;;8.09;83.25;98383.03;5067476;28;20651;-70
2020/12/20 03:48:19;;;;;;;7.60;6.80;;;8.50;90.90;;;8.08;84.30;98392.56;5062136;28;21012;-70
2020/12/20 03:50:47;;;;;;;8.80;7.53;;;8.50;90.90;;;8.09;83.29;98393.41;5059549;28;20638;-70
2020/12/20 03:53:15;;;;;;;8.90;7.53;;;8.50;91.30;;;8.10;83.07;98395.09;5062785;28;20647;-70
2020/12/20 03:55:52;;;;;;;9.20;7.80;;;8.50;90.90;;;8.09;83.09;98388.22;5051269;28;20632;-70
2020/12/20 03:58:19;;;;;;;9.93;7.50;;;8.40;90.80;;;8.08;83.76;98389.97;5066177;28;21173;-71
2020/12/20 04:00:47;;;;;;;8.57;7.33;;;8.50;90.80;;;8.09;83.29;98394.25;5058488;28;21003;-70
2020/12/20 04:03:26;;;;;;;9.37;7.63;;;8.50;90.70;;;8.09;83.59;98391.66;5064794;28;20746;-69
2020/12/20 04:05:53;;;;;;;8.20;6.57;;;8.50;90.80;;;8.10;82.94;98385.56;5060812;28;20634;-72
2020/12/20 04:08:23;;;;;;;10.47;7.33;;;8.50;90.70;;;8.11;83.89;98399.38;5068691;28;20635;-69
2020/12/20 04:11:07;;;;;;;10.80;8.10;;;8.50;90.70;;;8.09;82.79;98389.06;5066363;28;20655;-69
2020/12/20 04:13:36;;;;;;;9.00;6.83;;;8.50;90.70;;;8.08;84.10;98387.38;5069714;28;20638;-70
2020/12/20 04:16:06;;;;;;;7.83;6.77;;;8.50;90.60;;;8.11;82.53;98392.44;5055295;28;20619;-69
2020/12/20 04:18:34;;;;;;;9.13;7.13;;;8.50;90.60;;;8.10;83.29;98390.75;5052230;28;20647;-70
2020/12/20 04:21:02;;;;;;;9.60;7.30;;;8.50;90.60;;;8.12;83.93;98391.53;5062702;28;20658;-70
2020/12/20 04:23:31;;;;;;;9.43;7.10;;;8.50;90.50;;;8.10;83.64;98384.69;5049754;28;20639;-70
2020/12/20 04:26:12;;;;;;;7.40;6.20;;;8.50;90.40;;;8.09;82.16;98389.06;5063225;28;20636;-69
2020/12/20 04:28:58;;;;;;;8.33;7.30;;;8.50;90.30;;;8.10;83.93;98387.28;5062729;28;20636;-70
2020/12/20 04:31:34;;;;;;;8.50;6.93;;;8.50;90.60;;;8.09;84.00;98391.66;5064576;28;21169;-69
2020/12/20 04:34:01;;;;;;;7.97;6.70;;;8.50;90.50;;;8.10;83.26;98390.75;5057273;28;20739;-69
2020/12/20 04:36:29;;;;;;;8.20;6.80;;;8.50;90.40;;;8.13;83.44;98395.81;5070181;28;20624;-69
2020/12/20 04:39:05;;;;;;;8.20;6.50;;;8.50;90.40;;;8.14;82.71;98397.47;5072678;28;20641;-70
2020/12/20 04:41:35;;;;;;;8.73;6.70;;;8.50;90.40;;;8.15;83.45;98385.34;5051718;28;20665;-70
2020/12/20 04:44:06;;;;;;;7.83;7.03;;;8.50;90.20;;;8.16;82.79;98387.00;5060091;28;20652;-69
2020/12/20 04:46:36;;;;;;;9.20;7.40;;;8.50;90.40;;;8.17;82.07;98386.91;5060383;28;20636;-70
2020/12/20 04:49:23;;;;;;;8.30;7.17;;;8.50;90.20;;;8.18;82.66;98391.19;5071184;28;21209;-70
2020/12/20 04:52:00;;;;;;;8.23;7.20;;;8.60;90.30;;;8.19;83.92;98399.81;5064812;28;20725;-70
2020/12/20 04:54:33;;;;;;;10.20;7.00;;;8.60;90.40;;;8.19;81.93;98399.81;5069179;28;20723;-70
2020/12/20 04:57:06;;;;;;;8.73;7.60;;;8.60;90.20;;;8.19;83.46;98395.44;5056240;28;20632;-69
2020/12/20 04:59:38;;;;;;;8.23;6.40;;;8.60;90.10;;;8.20;81.79;98399.72;5069757;28;21189;-69
2020/12/20 05:02:11;;;;;;;9.67;7.50;;;8.60;90.10;;;8.19;82.92;98395.44;5070738;28;20624;-69
2020/12/20 05:04:39;;;;;;;7.80;7.10;;;8.60;90.10;;;8.20;82.08;98396.31;5067996;28;20668;-69
2020/12/20 05:07:10;;;;;;;9.17;7.27;;;8.60;90.20;;;8.22;83.72;98397.88;5064074;28;20654;-69
2020/12/20 05:09:47;;;;;;;8.80;6.80;;;8.60;90.60;;;8.21;82.45;98397.97;5071806;28;20631;-69
2020/12/20 05:12:28;;;;;;;9.10;7.43;;;8.60;89.80;;;8.18;82.95;98386.00;5057896;28;20640;-70
2020/12/20 05:15:17;;;;;;;9.73;6.90;;;8.60;89.90;;;8.19;81.26;98385.06;5067597;28;20660;-69
2020/12/20 05:17:46;;;;;;;8.53;7.37;;;8.60;89.70;;;8.19;82.72;98374.66;5072371;28;20626;-69
2020/12/20 05:20:36;;;;;;;8.10;7.00;;;8.60;89.90;;;8.19;82.58;98385.06;5050485;28;21018;-69
2020/12/20 05:23:07;;;;;;;7.60;6.63;;;8.60;90.00;;;8.21;82.07;98384.97;5055432;28;21231;-69
2020/12/20 05:25:37;;;;;;;9.17;6.90;;;8.60;90.10;;;8.19;83.27;98390.25;5056383;28;20727;-69
2020/12/20 05:28:12;;;;;;;9.17;7.37;;;8.60;90.10;;;8.19;82.96;98392.84;5059251;28;21246;-69
2020/12/20 05:30:46;;;;;;;8.60;7.70;;;8.60;90.00;;;8.19;82.96;98395.44;5066316;28;20697;-69
2020/12/20 05:33:35;;;;;;;7.90;6.73;;;8.60;90.00;;;8.21;83.25;98397.97;5054355;28;20719;-69
2020/12/20 05:36:25;;;;;;;9.10;6.47;;;8.60;90.00;;;8.18;81.76;98388.59;5070582;28;21196;-69
2020/12/20 05:39:18;;;;;;;8.77;7.40;;;8.60;90.00;;;8.16;83.34;98385.25;5061457;28;20675;-69
2020/12/20 05:41:56;;;;;;;12.30;9.63;;;8.60;90.00;;;8.17;82.30;98379.13;5069645;28;20659;-69
2020/12/20 05:44:24;;;;;;;9.50;6.97;;;8.60;89.90;;;8.16;82.39;98379.19;5068593;28;20630;-69
2020/12/20 05:47:05;;;;;;;9.10;7.90;;;8.60;90.00;;;8.16;82.50;98377.47;5053170;28;21159;-68
2020/12/20 05:49:40;;;;;;;8.27;7.40;;;8.50;90.00;;;8.14;82.52;98375.84;5069333;28;20642;-70
2020/12/20 05:52:26;;;;;;;9.77;7.83;;;8.50;90.00;;;8.15;83.02;98374.94;5066935;28;20668;-70
2020/12/20 05:54:54;;;;;;;9.23;6.60;;;8.50;90.00;;;8.13;82.28;98380.22;5073812;28;20613;-71
2020/12/20 05:57:23;;;;;;;7.10;6.40;;;8.50;89.90;;;8.14;81.79;98381.06;5061325;28;20693;-71
2020/12/20 05:59:53;;;;;;;7.40;6.50;;;8.60;90.00;;;8.15;83.35;98393.97;5068280;28;20734;-71
2020/12/20 06:02:21;;;;;;;7.70;6.87;;;8.60;90.00;;;8.15;82.76;98388.75;5072214;28;21056;-71
2020/12/20 06:04:51;;;;;;;8.80;7.30;;;8.50;89.90;;;8.16;81.96;98389.59;5069479;28;21076;-71
2020/12/20 06:07:27;;;;;;;8.90;6.67;;;8.60;90.00;;;8.15;82.91;98393.97;5055363;28;20636;-71
2020/12/20 06:09:57;;;;;;;8.13;6.80;;;8.60;90.00;;;8.15;81.58;98395.72;5062858;28;21128;-71
2020/12/20 06:12:40;;;;;;;8.40;7.30;;;8.50;89.70;;;8.12;81.68;98391.53;5067309;28;20677;-70
2020/12/20 06:15:14;;;;;;;8.20;7.10;;;8.50;90.00;;;8.12;82.44;98393.28;5052996;28;20637;-71
2020/12/20 06:17:44;;;;;;;8.40;7.10;;;8.50;90.10;;;8.13;82.46;98389.75;5071456;28;20626;-71
2020/12/20 06:20:28;;;;;;;11.03;8.70;;;8.50;90.10;;;8.14;82.51;98387.06;5063841;28;20648;-71
2020/12/20 06:22:56;;;;;;;11.13;9.77;;;8.50;90.20;;;8.13;82.81;98389.75;5072455;28;20626;-71
2020/12/20 06:25:27;;;;;;;12.20;9.73;;;8.50;89.70;;;8.13;81.69;98393.22;5068548;28;20658;-71
2020/12/20 06:28:04;;;;;;;9.60;8.60;;;8.50;89.80;;;8.13;82.12;98389.75;5054037;28;20640;-71
2020/12/20 06:30:33;;;;;;;10.20;7.90;;;8.50;89.90;;;8.12;83.34;98394.13;5056247;28;20642;-71
2020/12/20 06:33:03;;;;;;;8.63;7.37;;;8.50;90.00;;;8.10;81.85;98395.94;5073187;28;20626;-71
2020/12/20 06:35:32;;;;;;;9.90;7.60;;;8.50;89.90;;;8.09;81.76;98399.44;5067465;28;20667;-71
2020/12/20 06:37:59;;;;;;;10.17;7.80;;;8.50;90.00;;;8.03;83.23;98391.16;5053053;28;20659;-70
2020/12/20 06:40:44;;;;;;;8.67;6.97;;;8.50;89.70;;;8.02;81.58;98390.28;5059568;28;20682;-70
2020/12/20 06:43:11;;;;;;;9.47;7.13;;;8.40;89.80;;;8.01;81.84;98398.16;5071600;28;21149;-70
2020/12/20 06:45:43;;;;;;;11.80;7.20;;;8.40;90.00;;;8.00;82.61;98405.13;5063452;28;21484;-70
2020/12/20 06:48:13;;;;;;;8.40;7.23;;;8.40;90.00;;;7.99;82.42;98421.63;5072136;28;20640;-70
2020/12/20 06:50:44;;;;;;;8.13;7.00;;;8.40;89.90;;;7.99;82.84;98416.41;5060620;28;21185;-70
2020/12/20 06:53:16;;;;;;;9.67;7.57;;;8.40;89.50;;;7.98;82.45;98417.38;5072822;28;20738;-70
2020/12/20 06:55:44;;;;;;;7.67;6.87;;;8.40;89.40;;;7.98;82.04;98417.38;5066055;28;20635;-71
2020/12/20 06:58:17;;;;;;;9.33;7.07;;;8.40;89.70;;;7.95;81.85;98415.84;5055568;28;21015;-71
2020/12/20 07:00:48;;;;;;;10.57;8.10;;;8.40;89.90;;;7.95;81.90;98418.44;5061899;28;20675;-70
2020/12/20 07:03:37;;;;;;;8.97;7.47;;;8.30;90.30;;;7.97;83.44;98415.69;5065119;28;20660;-72
2020/12/20 07:06:19;;;;;;;8.60;7.20;;;8.40;90.00;;;7.99;81.47;98424.22;5066925;28;20635;-72
2020/12/20 07:09:05;;;;;;;8.73;7.57;;;8.40;89.70;;;7.99;82.84;98428.56;5067538;28;20639;-70
2020/12/20 07:11:41;;;;;;;8.47;7.20;;;8.40;89.70;;;7.99;83.05;98428.56;5067559;28;20627;-70
2020/12/20 07:14:22;;;;;;;9.93;7.17;;;8.40;90.00;;;8.02;83.49;98429.25;5062700;28;20632;-71
2020/12/20 07:16:52;;;;;;;8.70;7.50;;;8.40;90.10;;;8.02;83.55;98434.44;5069222;28;20702;-70
2020/12/20 07:19:22;;;;;;;9.83;7.97;;;8.40;90.10;;;8.02;82.07;98428.41;5053117;28;20691;-70
2020/12/20 07:22:07;;;;;;;9.63;7.60;;;8.40;90.00;;;8.02;83.02;98433.63;5071081;28;20659;-71
2020/12/20 07:24:37;;;;;;;8.50;7.60;;;8.40;90.00;;;8.04;83.28;98431.75;5059505;28;20985;-70
2020/12/20 07:27:06;;;;;;;8.50;7.43;;;8.40;90.00;;;8.04;83.32;98432.63;5068236;28;20623;-71
2020/12/20 07:29:38;;;;;;;8.47;7.20;;;8.40;90.00;;;8.06;81.81;98440.34;5058068;28;20622;-72
2020/12/20 07:32:07;;;;;;;7.87;7.07;;;8.40;90.40;;;8.07;82.09;98442.00;5069197;28;20638;-70
2020/12/20 07:34:34;;;;;;;8.37;7.20;;;8.50;90.10;;;8.08;81.50;98438.47;5066386;28;20678;-70
2020/12/20 07:37:02;;;;;;;9.07;7.43;;;8.50;89.70;;;8.10;82.64;98447.88;5065777;28;21049;-70
2020/12/20 07:39:30;;;;;;;13.37;9.60;;;8.50;89.50;;;8.14;82.27;98449.41;5069007;28;20694;-70
2020/12/20 07:41:59;;;;;;;26.97;15.60;;;8.50;89.10;;;8.13;81.00;98447.75;5051700;28;21022;-70
2020/12/20 07:44:34;;;;;;;14.57;9.60;;;8.50;89.10;;;8.13;82.29;98442.56;5052018;28;20616;-71
2020/12/20 07:47:11;;;;;;;16.50;11.20;;;8.50;89.40;;;8.15;81.59;98455.47;5067753;28;20750;-70
2020/12/20 07:49:38;;;;;;;14.50;9.63;;;8.50;89.30;;;8.15;81.77;98458.91;5067288;28;20628;-70
2020/12/20 07:52:09;;;;;;;23.83;14.33;;;8.60;90.00;;;8.17;81.68;98457.03;5054405;28;21109;-70
2020/12/20 07:54:37;;;;;;;19.57;12.33;;;8.60;90.00;;;8.18;82.63;98458.72;5054405;28;20692;-70
2020/12/20 07:57:05;;;;;;;18.60;12.40;;;8.60;90.00;;;8.19;82.03;98462.16;5066228;28;20665;-70
2020/12/20 07:59:35;;;;;;;11.10;9.03;;;8.60;89.70;;;8.19;82.03;98457.78;5068917;28;20698;-71
2020/12/20 08:02:03;;;;;;;13.00;9.13;;;8.60;89.40;;;8.20;81.47;98456.06;5069545;28;20660;-70
2020/12/20 08:04:31;;;;;;;12.37;9.60;;;8.60;89.40;;;8.21;82.97;98463.75;5056765;28;20752;-70
2020/12/20 08:06:59;;;;;;;10.50;8.60;;;8.60;89.60;;;8.20;82.66;98462.06;5053507;28;20626;-71
2020/12/20 08:09:28;;;;;;;18.40;13.10;;;8.60;90.30;;;8.22;83.15;98472.38;5059143;28;20734;-70
2020/12/20 08:11:57;;;;;;;14.23;11.80;;;8.60;89.90;;;8.24;82.07;98463.59;5070414;28;20614;-71
2020/12/20 08:14:25;;;;;;;12.50;8.43;;;8.60;89.70;;;8.25;81.45;98462.66;5042346;28;21218;-70
2020/12/20 08:16:54;;;;;;;10.77;8.60;;;8.60;89.20;;;8.28;83.07;98466.88;5060372;28;22356;-68
2020/12/20 08:19:25;;;;;;;10.20;8.33;;;8.60;89.70;;;8.35;82.61;98458.66;5061220;28;20744;-70
2020/12/20 08:22:04;;;;;;;11.10;8.40;;;8.70;89.40;;;8.37;81.82;98463.78;5073159;28;20755;-70
2020/12/20 08:24:34;;;;;;;10.93;8.50;;;8.70;88.50;;;8.42;81.02;98460.03;5055389;28;20697;-70
2020/12/20 08:27:14;;;;;;;9.63;7.60;;;8.70;89.40;;;8.46;82.40;98462.38;5061188;28;21077;-71
2020/12/20 08:29:43;;;;;;;11.90;8.33;;;8.80;89.80;;;8.47;82.24;98461.44;5063273;28;20642;-71
2020/12/20 08:32:13;;;;;;;10.50;7.93;;;8.80;90.00;;;8.50;80.95;98463.03;5059606;28;20636;-71
2020/12/20 08:34:41;;;;;;;9.30;7.73;;;8.80;89.10;;;8.54;80.60;98464.56;5057434;28;20638;-71
2020/12/20 08:37:14;;;;;;;9.63;8.43;;;8.90;89.10;;;8.60;81.89;98469.41;5057169;28;20718;-70
2020/12/20 08:39:43;;;;;;;19.73;11.60;;;8.90;88.80;;;8.70;81.03;98471.41;5055551;28;20614;-69
2020/12/20 08:42:12;;;;;;;16.17;11.47;;;9.00;88.90;;;8.82;81.48;98469.91;5066909;28;20686;-70
2020/12/20 08:44:41;;;;;;;14.17;10.10;;;9.10;88.90;;;8.93;81.06;98477.03;5061135;28;20997;-69
2020/12/20 08:47:12;;;;;;;13.37;9.87;;;9.20;88.40;;;9.08;79.87;98477.94;5054765;28;20616;-69
2020/12/20 08:49:41;;;;;;;17.20;11.23;;;9.30;88.20;;;9.23;80.12;98480.53;5066010;28;21190;-66
2020/12/20 08:52:14;;;;;;;15.10;10.73;;;9.40;88.90;;;9.35;79.88;98479.81;5066323;28;20659;-64
2020/12/20 08:54:49;;;;;;;9.07;8.10;;;9.60;87.90;;;9.44;79.74;98476.66;5062687;28;21209;-66
2020/12/20 08:57:17;;;;;;;14.53;10.83;;;9.70;87.50;;;9.52;79.13;98482.28;5066899;28;20641;-67
2020/12/20 08:59:46;;;;;;;17.10;10.63;;;9.70;86.10;;;9.51;78.63;98489.25;5061417;28;20653;-67
2020/12/20 09:02:20;;;;;;;27.17;19.40;;;9.80;86.10;;;9.60;79.03;98485.28;5058706;28;20699;-67
2020/12/20 09:04:59;;;;;;;64.23;33.93;;;9.80;86.90;;;9.63;78.28;98480.72;5054996;28;20750;-67
2020/12/20 09:07:35;;;;;;;25.83;18.63;;;9.80;85.60;;;9.56;78.17;98482.03;5054789;28;20650;-69
2020/12/20 09:10:10;;;;;;;15.27;10.33;;;9.80;85.00;;;9.46;78.00;98475.66;5057647;28;20620;-68
2020/12/20 09:12:46;;;;;;;14.40;10.17;;;9.70;85.10;;;9.47;78.51;98477.34;5058584;28;20690;-68
2020/12/20 09:15:14;;;;;;;10.27;7.87;;;9.80;85.70;;;9.48;78.88;98476.41;5071955;28;20730;-63
2020/12/20 09:17:44;;;;;;;10.40;8.20;;;9.80;85.70;;;9.50;79.18;98481.53;5061436;28;20628;-67
2020/12/20 09:20:13;;;;;;;9.83;8.73;;;9.80;85.80;;;9.45;78.26;98476.56;5063193;28;21024;-74
2020/12/20 09:22:45;;;;;;;9.47;7.90;;;9.70;85.10;;;9.46;79.01;98480.03;5053790;28;20696;-77
2020/12/20 09:25:16;;;;;;;12.67;8.97;;;9.80;86.00;;;9.49;79.42;98470.28;5055769;28;20631;-75
2020/12/20 09:27:56;;;;;;;11.37;8.70;;;9.80;86.60;;;9.53;78.91;98476.13;5073331;28;21167;-76
2020/12/20 09:30:40;;;;;;;9.03;8.10;;;9.80;86.40;;;9.51;78.42;98480.59;5066459;28;20725;-75
2020/12/20 09:33:27;;;;;;;11.40;10.20;;;9.80;85.30;;;9.59;78.55;98481.84;5053491;28;20802;-76
2020/12/20 09:36:07;;;;;;;10.30;8.67;;;9.90;85.90;;;9.73;79.03;98481.88;5052756;28;20205;-76
2020/12/20 09:38:41;;;;;;;9.77;8.67;;;10.00;85.20;;;9.88;79.03;98484.41;5069011;28;20616;-73
2020/12/20 09:41:11;;;;;;;10.17;8.80;;;10.10;85.30;;;10.05;78.49;98484.25;5054586;28;20641;-74
2020/12/20 09:43:40;;;;;;;11.00;9.30;;;10.20;84.60;;;10.17;77.71;98486.13;5056045;28;20613;-78
2020/12/20 09:46:09;;;;;;;10.33;9.23;;;10.40;84.00;;;10.28;78.25;98482.88;5053903;28;20656;-74
2020/12/20 09:48:36;;;;;;;12.00;9.87;;;10.50;84.20;;;10.41;77.30;98474.22;5056630;28;20616;-78
2020/12/20 09:51:04;;;;;;;11.83;8.97;;;10.60;83.80;;;10.60;77.18;98469.53;5059513;28;20636;-71
2020/12/20 09:53:31;;;;;;;11.33;8.97;;;10.80;83.30;;;10.78;77.30;98477.06;5060389;28;20669;-71
2020/12/20 09:56:00;;;;;;;10.43;9.33;;;10.90;83.20;;;10.80;76.48;98466.53;5053683;28;20715;-71
2020/12/20 09:58:29;;;;;;;10.97;8.87;;;11.00;82.10;;;10.70;75.00;98474.06;5069879;28;20730;-71
2020/12/20 10:00:57;;;;;;;12.60;9.10;;;11.00;80.00;;;10.57;74.43;98475.78;5072679;28;20655;-68
2020/12/20 10:03:27;;;;;;;10.57;9.10;;;10.80;79.70;;;10.58;76.97;98474.00;5062996;28;21217;-70
2020/12/20 10:05:59;;;;;;;11.00;9.50;;;10.80;81.20;;;10.70;76.02;98473.25;5052201;28;20669;-68
2020/12/20 10:08:27;;;;;;;15.40;10.73;;;10.90;82.20;;;10.85;77.25;98479.19;5065235;28;20623;-71
2020/12/20 10:10:56;;;;;;;11.90;9.70;;;11.10;82.60;;;10.98;77.44;98482.69;5058688;28;20747;-70
2020/12/20 10:13:24;;;;;;;12.17;9.10;;;11.20;82.40;;;11.08;76.19;98478.56;5054246;28;20628;-70
2020/12/20 10:15:52;;;;;;;10.70;8.83;;;11.30;82.00;;;11.14;74.67;98472.94;5061831;28;20631;-71
2020/12/20 10:18:20;;;;;;;12.93;10.00;;;11.30;80.60;;;11.20;75.61;98475.16;5071253;28;21039;-70
2020/12/20 10:20:47;;;;;;;10.70;8.50;;;11.40;81.50;;;11.17;75.26;98472.75;5072001;28;20729;-70
2020/12/20 10:23:15;;;;;;;9.77;8.73;;;11.40;79.50;;;11.24;75.83;98468.78;5058267;28;20678;-70
2020/12/20 10:25:42;;;;;;;10.17;9.00;;;11.40;80.10;;;11.27;75.33;98460.75;5053164;28;21288;-70
2020/12/20 10:28:10;;;;;;;11.27;9.10;;;11.40;79.40;;;11.35;73.79;98463.69;5056563;28;21194;-70
2020/12/20 10:30:39;;;;;;;10.40;8.73;;;11.50;79.80;;;11.44;74.86;98471.78;5072261;28;20623;-71
2020/12/20 10:33:06;;;;;;;12.07;9.40;;;11.60;80.50;;;11.47;74.32;98476.84;5066486;28;20628;-70
2020/12/20 10:35:34;;;;;;;13.23;9.83;;;11.70;79.90;;;11.58;76.63;98478.75;5069328;28;21318;-71
2020/12/20 10:38:01;;;;;;;13.47;9.63;;;11.80;80.70;;;11.63;75.95;98476.66;5070078;28;20653;-71
2020/12/20 10:40:29;;;;;;;10.43;7.93;;;11.80;80.20;;;11.68;74.35;98471.97;5072988;28;20627;-70
2020/12/20 10:42:57;;;;;;;11.63;9.67;;;11.90;80.20;;;11.74;75.74;98471.56;5062930;28;20632;-71
2020/12/20 10:45:24;;;;;;;30.07;21.63;;;11.90;80.20;;;11.75;73.68;98465.41;5055636;28;21039;-71
2020/12/20 10:47:53;;;;;;;20.00;15.27;;;12.00;78.80;;;11.80;74.83;98464.13;5073946;28;20682;-71